sensor_id;sensor_type;location;lat;lon;timestamp;P1;durP1;ratioP1;P2;durP2;ratioP2
20318;SDS011;10317;47.254;11.314;2023-05-10T00:02:09;4.22;;;1.38;;
20318;SDS011;10317;47.254;11.314;2023-05-10T00:04:34;1.52;;;0.98;;
20318;SDS011;10317;47.254;11.314;2023-05-10T00:07:00;0.98;;;0.98;;
20318;SDS011;10317;47.254;11.314;2023-05-10T00:09:26;1.27;;;1.17;;
20318;SDS011;10317;47.254;11.314;2023-05-10T00:11:52;4.40;;;1.48;;
20318;SDS011;10317;47.254;11.314;2023-05-10T00:14:17;1.20;;;1.08;;
20318;SDS011;10317;47.254;11.314;2023-05-10T00:16:43;1.25;;;1.23;;
20318;SDS011;10317;47.254;11.314;2023-05-10T00:19:09;1.67;;;1.33;;
20318;SDS011;10317;47.254;11.314;2023-05-10T00:21:35;1.02;;;1.02;;
20318;SDS011;10317;47.254;11.314;2023-05-10T00:24:00;1.10;;;1.10;;
20318;SDS011;10317;47.254;11.314;2023-05-10T00:26:26;0.90;;;0.90;;
20318;SDS011;10317;47.254;11.314;2023-05-10T00:28:52;1.38;;;0.93;;
20318;SDS011;10317;47.254;11.314;2023-05-10T00:31:17;0.98;;;0.98;;
20318;SDS011;10317;47.254;11.314;2023-05-10T00:33:43;3.80;;;1.20;;
20318;SDS011;10317;47.254;11.314;2023-05-10T00:36:09;2.75;;;1.50;;
20318;SDS011;10317;47.254;11.314;2023-05-10T00:38:35;1.95;;;1.20;;
20318;SDS011;10317;47.254;11.314;2023-05-10T00:41:01;1.30;;;1.20;;
20318;SDS011;10317;47.254;11.314;2023-05-10T00:43:26;1.65;;;1.30;;
20318;SDS011;10317;47.254;11.314;2023-05-10T00:45:52;1.08;;;1.08;;
20318;SDS011;10317;47.254;11.314;2023-05-10T00:48:18;1.67;;;1.10;;
20318;SDS011;10317;47.254;11.314;2023-05-10T00:50:44;1.30;;;1.30;;
20318;SDS011;10317;47.254;11.314;2023-05-10T00:53:10;1.77;;;1.35;;
20318;SDS011;10317;47.254;11.314;2023-05-10T00:55:37;1.35;;;1.20;;
20318;SDS011;10317;47.254;11.314;2023-05-10T00:58:03;1.10;;;1.10;;
20318;SDS011;10317;47.254;11.314;2023-05-10T01:00:29;1.38;;;1.25;;
20318;SDS011;10317;47.254;11.314;2023-05-10T01:02:55;1.20;;;1.20;;
20318;SDS011;10317;47.254;11.314;2023-05-10T01:05:21;1.40;;;1.40;;
20318;SDS011;10317;47.254;11.314;2023-05-10T01:07:47;1.45;;;1.20;;
20318;SDS011;10317;47.254;11.314;2023-05-10T01:10:13;1.50;;;1.35;;
20318;SDS011;10317;47.254;11.314;2023-05-10T01:12:40;1.30;;;1.20;;
20318;SDS011;10317;47.254;11.314;2023-05-10T01:15:08;1.85;;;1.20;;
20318;SDS011;10317;47.254;11.314;2023-05-10T01:17:36;1.30;;;1.30;;
20318;SDS011;10317;47.254;11.314;2023-05-10T01:20:04;1.40;;;1.40;;
20318;SDS011;10317;47.254;11.314;2023-05-10T01:25:53;1.23;;;1.23;;
20318;SDS011;10317;47.254;11.314;2023-05-10T01:34:23;1.20;;;1.10;;
20318;SDS011;10317;47.254;11.314;2023-05-10T01:37:11;2.00;;;1.30;;
20318;SDS011;10317;47.254;11.314;2023-05-10T01:42:10;1.25;;;1.20;;
20318;SDS011;10317;47.254;11.314;2023-05-10T01:50:19;1.52;;;1.23;;
20318;SDS011;10317;47.254;11.314;2023-05-10T01:52:50;1.27;;;1.17;;
20318;SDS011;10317;47.254;11.314;2023-05-10T01:55:20;1.40;;;1.40;;
20318;SDS011;10317;47.254;11.314;2023-05-10T01:57:48;1.88;;;1.85;;
20318;SDS011;10317;47.254;11.314;2023-05-10T02:00:18;1.75;;;1.65;;
20318;SDS011;10317;47.254;11.314;2023-05-10T02:02:45;1.00;;;1.00;;
20318;SDS011;10317;47.254;11.314;2023-05-10T02:05:13;1.55;;;1.40;;
20318;SDS011;10317;47.254;11.314;2023-05-10T02:07:41;3.55;;;1.10;;
20318;SDS011;10317;47.254;11.314;2023-05-10T02:10:08;1.10;;;1.10;;
20318;SDS011;10317;47.254;11.314;2023-05-10T02:12:36;2.30;;;2.15;;
20318;SDS011;10317;47.254;11.314;2023-05-10T02:15:06;1.10;;;1.10;;
20318;SDS011;10317;47.254;11.314;2023-05-10T02:17:33;1.90;;;1.50;;
20318;SDS011;10317;47.254;11.314;2023-05-10T02:20:01;1.48;;;1.38;;
20318;SDS011;10317;47.254;11.314;2023-05-10T02:22:28;1.60;;;1.50;;
20318;SDS011;10317;47.254;11.314;2023-05-10T02:24:55;1.40;;;1.30;;
20318;SDS011;10317;47.254;11.314;2023-05-10T02:27:23;1.85;;;1.58;;
20318;SDS011;10317;47.254;11.314;2023-05-10T02:29:50;1.27;;;1.27;;
20318;SDS011;10317;47.254;11.314;2023-05-10T02:32:17;1.60;;;1.50;;
20318;SDS011;10317;47.254;11.314;2023-05-10T02:34:44;1.50;;;1.40;;
20318;SDS011;10317;47.254;11.314;2023-05-10T02:37:14;2.20;;;1.52;;
20318;SDS011;10317;47.254;11.314;2023-05-10T02:39:43;2.30;;;1.42;;
20318;SDS011;10317;47.254;11.314;2023-05-10T02:42:16;6.82;;;1.50;;
20318;SDS011;10317;47.254;11.314;2023-05-10T02:44:43;2.60;;;2.20;;
20318;SDS011;10317;47.254;11.314;2023-05-10T02:47:12;1.98;;;1.88;;
20318;SDS011;10317;47.254;11.314;2023-05-10T02:49:38;1.52;;;1.52;;
20318;SDS011;10317;47.254;11.314;2023-05-10T02:52:04;1.45;;;1.35;;
20318;SDS011;10317;47.254;11.314;2023-05-10T02:54:36;2.25;;;1.20;;
20318;SDS011;10317;47.254;11.314;2023-05-10T02:57:08;1.70;;;1.27;;
20318;SDS011;10317;47.254;11.314;2023-05-10T02:59:40;1.48;;;1.27;;
20318;SDS011;10317;47.254;11.314;2023-05-10T03:02:07;1.55;;;1.02;;
20318;SDS011;10317;47.254;11.314;2023-05-10T03:04:34;1.10;;;1.10;;
20318;SDS011;10317;47.254;11.314;2023-05-10T03:07:00;2.10;;;1.20;;
20318;SDS011;10317;47.254;11.314;2023-05-10T03:09:26;1.73;;;1.15;;
20318;SDS011;10317;47.254;11.314;2023-05-10T03:14:26;1.80;;;1.70;;
20318;SDS011;10317;47.254;11.314;2023-05-10T03:17:10;1.48;;;1.13;;
20318;SDS011;10317;47.254;11.314;2023-05-10T03:19:40;0.82;;;0.82;;
20318;SDS011;10317;47.254;11.314;2023-05-10T03:22:12;3.65;;;0.90;;
20318;SDS011;10317;47.254;11.314;2023-05-10T03:24:48;0.73;;;0.73;;
20318;SDS011;10317;47.254;11.314;2023-05-10T03:27:14;1.00;;;0.80;;
20318;SDS011;10317;47.254;11.314;2023-05-10T03:29:41;0.70;;;0.70;;
20318;SDS011;10317;47.254;11.314;2023-05-10T03:32:08;2.22;;;0.88;;
20318;SDS011;10317;47.254;11.314;2023-05-10T03:34:35;0.90;;;0.80;;
20318;SDS011;10317;47.254;11.314;2023-05-10T03:37:07;0.70;;;0.70;;
20318;SDS011;10317;47.254;11.314;2023-05-10T03:39:33;1.83;;;1.10;;
20318;SDS011;10317;47.254;11.314;2023-05-10T03:41:58;1.08;;;0.90;;
20318;SDS011;10317;47.254;11.314;2023-05-10T03:44:24;1.50;;;0.90;;
20318;SDS011;10317;47.254;11.314;2023-05-10T03:46:49;1.00;;;0.70;;
20318;SDS011;10317;47.254;11.314;2023-05-10T03:49:15;0.85;;;0.73;;
20318;SDS011;10317;47.254;11.314;2023-05-10T03:51:41;0.63;;;0.63;;
20318;SDS011;10317;47.254;11.314;2023-05-10T03:54:06;2.25;;;0.70;;
20318;SDS011;10317;47.254;11.314;2023-05-10T03:56:32;1.20;;;0.80;;
20318;SDS011;10317;47.254;11.314;2023-05-10T03:58:58;3.97;;;1.17;;
20318;SDS011;10317;47.254;11.314;2023-05-10T04:01:23;1.10;;;1.10;;
20318;SDS011;10317;47.254;11.314;2023-05-10T04:03:49;3.03;;;0.90;;
20318;SDS011;10317;47.254;11.314;2023-05-10T04:06:15;3.53;;;0.80;;
20318;SDS011;10317;47.254;11.314;2023-05-10T04:08:40;0.85;;;0.85;;
20318;SDS011;10317;47.254;11.314;2023-05-10T04:11:07;2.15;;;0.90;;
20318;SDS011;10317;47.254;11.314;2023-05-10T04:13:33;0.98;;;0.98;;
20318;SDS011;10317;47.254;11.314;2023-05-10T04:15:59;0.95;;;0.90;;
20318;SDS011;10317;47.254;11.314;2023-05-10T04:18:25;1.25;;;0.80;;
20318;SDS011;10317;47.254;11.314;2023-05-10T04:20:51;1.95;;;0.90;;
20318;SDS011;10317;47.254;11.314;2023-05-10T04:23:17;1.50;;;0.85;;
20318;SDS011;10317;47.254;11.314;2023-05-10T04:25:42;2.85;;;0.80;;
20318;SDS011;10317;47.254;11.314;2023-05-10T04:28:08;0.60;;;0.60;;
20318;SDS011;10317;47.254;11.314;2023-05-10T04:30:34;1.40;;;0.80;;
20318;SDS011;10317;47.254;11.314;2023-05-10T04:33:00;1.65;;;0.60;;
20318;SDS011;10317;47.254;11.314;2023-05-10T04:35:26;2.38;;;0.60;;
20318;SDS011;10317;47.254;11.314;2023-05-10T04:37:53;0.98;;;0.80;;
20318;SDS011;10317;47.254;11.314;2023-05-10T04:40:19;1.27;;;0.52;;
20318;SDS011;10317;47.254;11.314;2023-05-10T04:42:45;3.25;;;1.00;;
20318;SDS011;10317;47.254;11.314;2023-05-10T04:45:11;0.68;;;0.68;;
20318;SDS011;10317;47.254;11.314;2023-05-10T04:47:36;0.63;;;0.63;;
20318;SDS011;10317;47.254;11.314;2023-05-10T04:50:02;1.10;;;0.70;;
20318;SDS011;10317;47.254;11.314;2023-05-10T04:52:29;0.57;;;0.50;;
20318;SDS011;10317;47.254;11.314;2023-05-10T04:54:56;2.83;;;0.60;;
20318;SDS011;10317;47.254;11.314;2023-05-10T04:57:21;2.22;;;1.10;;
20318;SDS011;10317;47.254;11.314;2023-05-10T04:59:47;0.60;;;0.60;;
20318;SDS011;10317;47.254;11.314;2023-05-10T05:02:13;0.82;;;0.70;;
20318;SDS011;10317;47.254;11.314;2023-05-10T05:04:38;1.55;;;0.60;;
20318;SDS011;10317;47.254;11.314;2023-05-10T05:07:04;1.20;;;0.70;;
20318;SDS011;10317;47.254;11.314;2023-05-10T05:09:29;0.50;;;0.50;;
20318;SDS011;10317;47.254;11.314;2023-05-10T05:11:57;1.25;;;0.70;;
20318;SDS011;10317;47.254;11.314;2023-05-10T05:14:23;0.50;;;0.50;;
20318;SDS011;10317;47.254;11.314;2023-05-10T05:16:50;0.68;;;0.68;;
20318;SDS011;10317;47.254;11.314;2023-05-10T05:19:16;0.45;;;0.45;;
20318;SDS011;10317;47.254;11.314;2023-05-10T05:21:42;0.60;;;0.60;;
20318;SDS011;10317;47.254;11.314;2023-05-10T05:24:08;0.50;;;0.50;;
20318;SDS011;10317;47.254;11.314;2023-05-10T05:26:35;0.40;;;0.40;;
20318;SDS011;10317;47.254;11.314;2023-05-10T05:29:01;1.60;;;0.68;;
20318;SDS011;10317;47.254;11.314;2023-05-10T05:31:27;0.60;;;0.60;;
20318;SDS011;10317;47.254;11.314;2023-05-10T05:33:53;0.60;;;0.60;;
20318;SDS011;10317;47.254;11.314;2023-05-10T05:36:20;0.65;;;0.50;;
20318;SDS011;10317;47.254;11.314;2023-05-10T05:38:45;7.85;;;1.77;;
20318;SDS011;10317;47.254;11.314;2023-05-10T05:41:11;1.70;;;1.13;;
20318;SDS011;10317;47.254;11.314;2023-05-10T05:43:37;0.60;;;0.60;;
20318;SDS011;10317;47.254;11.314;2023-05-10T05:46:02;0.60;;;0.60;;
20318;SDS011;10317;47.254;11.314;2023-05-10T05:48:29;0.63;;;0.63;;
20318;SDS011;10317;47.254;11.314;2023-05-10T05:50:55;0.60;;;0.60;;
20318;SDS011;10317;47.254;11.314;2023-05-10T05:53:24;0.65;;;0.65;;
20318;SDS011;10317;47.254;11.314;2023-05-10T05:55:53;0.90;;;0.90;;
20318;SDS011;10317;47.254;11.314;2023-05-10T05:58:19;0.73;;;0.73;;
20318;SDS011;10317;47.254;11.314;2023-05-10T06:00:45;1.20;;;0.80;;
20318;SDS011;10317;47.254;11.314;2023-05-10T06:03:11;0.80;;;0.80;;
20318;SDS011;10317;47.254;11.314;2023-05-10T06:05:37;0.85;;;0.82;;
20318;SDS011;10317;47.254;11.314;2023-05-10T06:08:03;0.90;;;0.90;;
20318;SDS011;10317;47.254;11.314;2023-05-10T06:10:28;1.02;;;1.02;;
20318;SDS011;10317;47.254;11.314;2023-05-10T06:12:55;0.98;;;0.98;;
20318;SDS011;10317;47.254;11.314;2023-05-10T06:15:21;1.00;;;1.00;;
20318;SDS011;10317;47.254;11.314;2023-05-10T06:17:46;1.35;;;0.80;;
20318;SDS011;10317;47.254;11.314;2023-05-10T06:20:14;0.90;;;0.90;;
20318;SDS011;10317;47.254;11.314;2023-05-10T06:22:40;0.80;;;0.80;;
20318;SDS011;10317;47.254;11.314;2023-05-10T06:25:06;2.38;;;1.15;;
20318;SDS011;10317;47.254;11.314;2023-05-10T06:27:32;0.70;;;0.70;;
20318;SDS011;10317;47.254;11.314;2023-05-10T06:29:58;2.55;;;1.17;;
20318;SDS011;10317;47.254;11.314;2023-05-10T06:32:24;0.80;;;0.80;;
20318;SDS011;10317;47.254;11.314;2023-05-10T06:34:50;0.90;;;0.90;;
20318;SDS011;10317;47.254;11.314;2023-05-10T06:37:15;0.80;;;0.80;;
20318;SDS011;10317;47.254;11.314;2023-05-10T06:39:41;0.77;;;0.77;;
20318;SDS011;10317;47.254;11.314;2023-05-10T06:42:07;0.95;;;0.93;;
20318;SDS011;10317;47.254;11.314;2023-05-10T06:44:33;1.85;;;0.93;;
20318;SDS011;10317;47.254;11.314;2023-05-10T06:46:59;2.85;;;1.10;;
20318;SDS011;10317;47.254;11.314;2023-05-10T06:49:24;1.10;;;1.00;;
20318;SDS011;10317;47.254;11.314;2023-05-10T06:51:50;1.50;;;1.10;;
20318;SDS011;10317;47.254;11.314;2023-05-10T06:54:15;2.30;;;0.82;;
20318;SDS011;10317;47.254;11.314;2023-05-10T06:56:41;0.73;;;0.73;;
20318;SDS011;10317;47.254;11.314;2023-05-10T06:59:07;0.98;;;0.90;;
20318;SDS011;10317;47.254;11.314;2023-05-10T07:01:32;1.33;;;0.90;;
20318;SDS011;10317;47.254;11.314;2023-05-10T07:03:58;1.55;;;0.60;;
20318;SDS011;10317;47.254;11.314;2023-05-10T07:06:24;0.70;;;0.70;;
20318;SDS011;10317;47.254;11.314;2023-05-10T07:08:49;0.70;;;0.60;;
20318;SDS011;10317;47.254;11.314;2023-05-10T07:11:15;0.50;;;0.50;;
20318;SDS011;10317;47.254;11.314;2023-05-10T07:13:41;0.68;;;0.68;;
20318;SDS011;10317;47.254;11.314;2023-05-10T07:16:09;0.73;;;0.73;;
20318;SDS011;10317;47.254;11.314;2023-05-10T07:18:35;1.10;;;1.10;;
20318;SDS011;10317;47.254;11.314;2023-05-10T07:21:01;0.65;;;0.65;;
20318;SDS011;10317;47.254;11.314;2023-05-10T07:23:27;1.38;;;1.00;;
20318;SDS011;10317;47.254;11.314;2023-05-10T07:25:52;1.85;;;0.88;;
20318;SDS011;10317;47.254;11.314;2023-05-10T07:28:18;0.68;;;0.68;;
20318;SDS011;10317;47.254;11.314;2023-05-10T07:30:44;0.80;;;0.80;;
20318;SDS011;10317;47.254;11.314;2023-05-10T07:33:12;0.80;;;0.80;;
20318;SDS011;10317;47.254;11.314;2023-05-10T07:35:38;0.95;;;0.95;;
20318;SDS011;10317;47.254;11.314;2023-05-10T07:38:04;1.83;;;0.90;;
20318;SDS011;10317;47.254;11.314;2023-05-10T07:40:31;1.20;;;1.10;;
20318;SDS011;10317;47.254;11.314;2023-05-10T07:42:57;1.25;;;1.15;;
20318;SDS011;10317;47.254;11.314;2023-05-10T07:45:23;1.10;;;1.10;;
20318;SDS011;10317;47.254;11.314;2023-05-10T07:47:49;2.38;;;0.90;;
20318;SDS011;10317;47.254;11.314;2023-05-10T07:50:15;1.52;;;1.25;;
20318;SDS011;10317;47.254;11.314;2023-05-10T07:52:40;2.28;;;1.20;;
20318;SDS011;10317;47.254;11.314;2023-05-10T07:55:06;0.90;;;0.90;;
20318;SDS011;10317;47.254;11.314;2023-05-10T07:57:33;1.00;;;1.00;;
20318;SDS011;10317;47.254;11.314;2023-05-10T07:59:59;1.70;;;1.20;;
20318;SDS011;10317;47.254;11.314;2023-05-10T08:02:25;1.95;;;1.08;;
20318;SDS011;10317;47.254;11.314;2023-05-10T08:04:50;3.40;;;0.90;;
20318;SDS011;10317;47.254;11.314;2023-05-10T08:07:16;2.15;;;0.93;;
20318;SDS011;10317;47.254;11.314;2023-05-10T08:09:42;1.27;;;0.70;;
20318;SDS011;10317;47.254;11.314;2023-05-10T08:12:08;1.38;;;1.27;;
20318;SDS011;10317;47.254;11.314;2023-05-10T08:14:33;0.98;;;0.93;;
20318;SDS011;10317;47.254;11.314;2023-05-10T08:17:01;1.67;;;1.33;;
20318;SDS011;10317;47.254;11.314;2023-05-10T08:19:27;0.77;;;0.77;;
20318;SDS011;10317;47.254;11.314;2023-05-10T08:21:53;0.80;;;0.80;;
20318;SDS011;10317;47.254;11.314;2023-05-10T08:24:20;1.00;;;1.00;;
20318;SDS011;10317;47.254;11.314;2023-05-10T08:26:46;1.00;;;1.00;;
20318;SDS011;10317;47.254;11.314;2023-05-10T08:29:12;1.20;;;1.10;;
20318;SDS011;10317;47.254;11.314;2023-05-10T08:31:38;1.58;;;1.45;;
20318;SDS011;10317;47.254;11.314;2023-05-10T08:34:04;0.95;;;0.95;;
20318;SDS011;10317;47.254;11.314;2023-05-10T08:36:30;2.65;;;1.30;;
20318;SDS011;10317;47.254;11.314;2023-05-10T08:38:57;1.38;;;1.38;;
20318;SDS011;10317;47.254;11.314;2023-05-10T08:41:23;1.30;;;1.05;;
20318;SDS011;10317;47.254;11.314;2023-05-10T08:43:50;2.58;;;1.40;;
20318;SDS011;10317;47.254;11.314;2023-05-10T08:46:17;1.13;;;1.02;;
20318;SDS011;10317;47.254;11.314;2023-05-10T08:48:45;1.25;;;1.17;;
20318;SDS011;10317;47.254;11.314;2023-05-10T08:51:15;1.13;;;1.13;;
20318;SDS011;10317;47.254;11.314;2023-05-10T08:53:43;4.80;;;1.70;;
20318;SDS011;10317;47.254;11.314;2023-05-10T08:56:10;5.43;;;2.00;;
20318;SDS011;10317;47.254;11.314;2023-05-10T08:58:36;1.60;;;1.40;;
20318;SDS011;10317;47.254;11.314;2023-05-10T09:01:02;2.08;;;1.70;;
20318;SDS011;10317;47.254;11.314;2023-05-10T09:03:29;1.73;;;1.63;;
20318;SDS011;10317;47.254;11.314;2023-05-10T09:05:55;1.90;;;1.42;;
20318;SDS011;10317;47.254;11.314;2023-05-10T09:08:21;3.38;;;1.80;;
20318;SDS011;10317;47.254;11.314;2023-05-10T09:10:50;4.07;;;1.40;;
20318;SDS011;10317;47.254;11.314;2023-05-10T09:13:16;1.20;;;1.10;;
20318;SDS011;10317;47.254;11.314;2023-05-10T09:15:44;4.45;;;1.40;;
20318;SDS011;10317;47.254;11.314;2023-05-10T09:18:10;1.10;;;1.10;;
20318;SDS011;10317;47.254;11.314;2023-05-10T09:20:36;1.98;;;1.48;;
20318;SDS011;10317;47.254;11.314;2023-05-10T09:23:02;0.98;;;0.98;;
20318;SDS011;10317;47.254;11.314;2023-05-10T09:25:27;1.95;;;1.77;;
20318;SDS011;10317;47.254;11.314;2023-05-10T09:27:53;3.67;;;1.30;;
20318;SDS011;10317;47.254;11.314;2023-05-10T09:30:24;1.65;;;1.40;;
20318;SDS011;10317;47.254;11.314;2023-05-10T09:32:54;2.03;;;0.93;;
20318;SDS011;10317;47.254;11.314;2023-05-10T09:35:21;1.15;;;1.15;;
20318;SDS011;10317;47.254;11.314;2023-05-10T09:37:49;2.58;;;1.15;;
20318;SDS011;10317;47.254;11.314;2023-05-10T09:40:22;1.05;;;0.80;;
20318;SDS011;10317;47.254;11.314;2023-05-10T09:45:32;2.97;;;1.10;;
20318;SDS011;10317;47.254;11.314;2023-05-10T09:47:59;2.83;;;1.27;;
20318;SDS011;10317;47.254;11.314;2023-05-10T09:50:26;0.85;;;0.85;;
20318;SDS011;10317;47.254;11.314;2023-05-10T09:52:56;3.67;;;1.08;;
20318;SDS011;10317;47.254;11.314;2023-05-10T09:55:42;1.00;;;1.00;;
20318;SDS011;10317;47.254;11.314;2023-05-10T09:58:10;2.60;;;1.20;;
20318;SDS011;10317;47.254;11.314;2023-05-10T10:00:38;0.90;;;0.90;;
20318;SDS011;10317;47.254;11.314;2023-05-10T10:03:05;4.43;;;1.20;;
20318;SDS011;10317;47.254;11.314;2023-05-10T10:05:32;5.80;;;1.10;;
20318;SDS011;10317;47.254;11.314;2023-05-10T10:08:00;1.92;;;1.20;;
20318;SDS011;10317;47.254;11.314;2023-05-10T10:10:29;1.02;;;0.90;;
20318;SDS011;10317;47.254;11.314;2023-05-10T10:12:56;0.98;;;0.88;;
20318;SDS011;10317;47.254;11.314;2023-05-10T10:15:22;2.65;;;1.10;;
20318;SDS011;10317;47.254;11.314;2023-05-10T10:17:49;1.85;;;1.08;;
20318;SDS011;10317;47.254;11.314;2023-05-10T10:20:16;1.35;;;1.00;;
20318;SDS011;10317;47.254;11.314;2023-05-10T10:22:42;1.92;;;0.90;;
20318;SDS011;10317;47.254;11.314;2023-05-10T10:25:11;2.08;;;0.82;;
20318;SDS011;10317;47.254;11.314;2023-05-10T10:27:43;1.65;;;1.38;;
20318;SDS011;10317;47.254;11.314;2023-05-10T10:30:13;1.45;;;1.35;;
20318;SDS011;10317;47.254;11.314;2023-05-10T10:35:20;1.17;;;1.17;;
20318;SDS011;10317;47.254;11.314;2023-05-10T10:37:47;1.00;;;0.95;;
20318;SDS011;10317;47.254;11.314;2023-05-10T10:42:54;1.85;;;0.90;;
20318;SDS011;10317;47.254;11.314;2023-05-10T10:45:21;1.10;;;0.90;;
20318;SDS011;10317;47.254;11.314;2023-05-10T10:47:48;1.00;;;1.00;;
20318;SDS011;10317;47.254;11.314;2023-05-10T10:50:14;1.00;;;1.00;;
20318;SDS011;10317;47.254;11.314;2023-05-10T10:52:43;2.13;;;0.93;;
20318;SDS011;10317;47.254;11.314;2023-05-10T10:55:27;0.95;;;0.90;;
20318;SDS011;10317;47.254;11.314;2023-05-10T10:57:55;1.13;;;1.13;;
20318;SDS011;10317;47.254;11.314;2023-05-10T11:00:29;0.60;;;0.60;;
20318;SDS011;10317;47.254;11.314;2023-05-10T11:03:03;0.80;;;0.80;;
20318;SDS011;10317;47.254;11.314;2023-05-10T11:10:37;0.88;;;0.50;;
20318;SDS011;10317;47.254;11.314;2023-05-10T11:13:08;0.85;;;0.50;;
20318;SDS011;10317;47.254;11.314;2023-05-10T11:15:36;0.60;;;0.60;;
20318;SDS011;10317;47.254;11.314;2023-05-10T11:18:19;0.50;;;0.50;;
20318;SDS011;10317;47.254;11.314;2023-05-10T11:20:52;0.50;;;0.50;;
20318;SDS011;10317;47.254;11.314;2023-05-10T11:23:23;0.32;;;0.32;;
20318;SDS011;10317;47.254;11.314;2023-05-10T11:25:49;0.50;;;0.50;;
20318;SDS011;10317;47.254;11.314;2023-05-10T11:28:16;0.57;;;0.43;;
20318;SDS011;10317;47.254;11.314;2023-05-10T11:30:44;0.50;;;0.50;;
20318;SDS011;10317;47.254;11.314;2023-05-10T11:33:14;0.35;;;0.35;;
20318;SDS011;10317;47.254;11.314;2023-05-10T11:35:41;2.08;;;0.80;;
20318;SDS011;10317;47.254;11.314;2023-05-10T11:38:08;0.50;;;0.50;;
20318;SDS011;10317;47.254;11.314;2023-05-10T11:40:34;0.43;;;0.43;;
20318;SDS011;10317;47.254;11.314;2023-05-10T11:43:02;0.40;;;0.40;;
20318;SDS011;10317;47.254;11.314;2023-05-10T11:45:28;0.70;;;0.60;;
20318;SDS011;10317;47.254;11.314;2023-05-10T11:47:56;0.95;;;0.60;;
20318;SDS011;10317;47.254;11.314;2023-05-10T11:50:23;0.50;;;0.43;;
20318;SDS011;10317;47.254;11.314;2023-05-10T11:52:53;0.60;;;0.60;;
20318;SDS011;10317;47.254;11.314;2023-05-10T11:55:20;1.23;;;0.50;;
20318;SDS011;10317;47.254;11.314;2023-05-10T11:57:46;0.50;;;0.50;;
20318;SDS011;10317;47.254;11.314;2023-05-10T12:00:12;0.60;;;0.60;;
20318;SDS011;10317;47.254;11.314;2023-05-10T12:02:39;0.60;;;0.60;;
20318;SDS011;10317;47.254;11.314;2023-05-10T12:05:05;0.57;;;0.57;;
20318;SDS011;10317;47.254;11.314;2023-05-10T12:07:32;1.65;;;0.75;;
20318;SDS011;10317;47.254;11.314;2023-05-10T12:15:10;0.82;;;0.82;;
20318;SDS011;10317;47.254;11.314;2023-05-10T12:17:46;0.70;;;0.70;;
20318;SDS011;10317;47.254;11.314;2023-05-10T12:20:13;1.48;;;0.70;;
20318;SDS011;10317;47.254;11.314;2023-05-10T12:22:39;1.02;;;0.90;;
20318;SDS011;10317;47.254;11.314;2023-05-10T12:25:05;0.75;;;0.70;;
20318;SDS011;10317;47.254;11.314;2023-05-10T12:27:33;0.68;;;0.68;;
20318;SDS011;10317;47.254;11.314;2023-05-10T12:29:59;0.73;;;0.73;;
20318;SDS011;10317;47.254;11.314;2023-05-10T12:32:37;1.85;;;0.65;;
20318;SDS011;10317;47.254;11.314;2023-05-10T12:35:04;1.02;;;0.70;;
20318;SDS011;10317;47.254;11.314;2023-05-10T12:37:30;0.60;;;0.60;;
20318;SDS011;10317;47.254;11.314;2023-05-10T12:40:00;5.28;;;0.88;;
20318;SDS011;10317;47.254;11.314;2023-05-10T12:42:27;1.73;;;0.60;;
20318;SDS011;10317;47.254;11.314;2023-05-10T12:44:57;1.63;;;0.90;;
20318;SDS011;10317;47.254;11.314;2023-05-10T12:47:22;2.40;;;0.70;;
20318;SDS011;10317;47.254;11.314;2023-05-10T12:49:48;4.47;;;0.90;;
20318;SDS011;10317;47.254;11.314;2023-05-10T12:52:14;0.73;;;0.73;;
20318;SDS011;10317;47.254;11.314;2023-05-10T12:54:39;0.80;;;0.80;;
20318;SDS011;10317;47.254;11.314;2023-05-10T12:57:05;0.60;;;0.60;;
20318;SDS011;10317;47.254;11.314;2023-05-10T12:59:31;2.80;;;0.80;;
20318;SDS011;10317;47.254;11.314;2023-05-10T13:01:57;1.13;;;0.75;;
20318;SDS011;10317;47.254;11.314;2023-05-10T13:04:23;0.50;;;0.50;;
20318;SDS011;10317;47.254;11.314;2023-05-10T13:06:48;0.65;;;0.65;;
20318;SDS011;10317;47.254;11.314;2023-05-10T13:09:14;0.50;;;0.50;;
20318;SDS011;10317;47.254;11.314;2023-05-10T13:11:40;0.65;;;0.65;;
20318;SDS011;10317;47.254;11.314;2023-05-10T13:14:06;0.77;;;0.57;;
20318;SDS011;10317;47.254;11.314;2023-05-10T13:16:31;1.17;;;0.70;;
20318;SDS011;10317;47.254;11.314;2023-05-10T13:18:57;0.50;;;0.50;;
20318;SDS011;10317;47.254;11.314;2023-05-10T13:21:23;0.80;;;0.80;;
20318;SDS011;10317;47.254;11.314;2023-05-10T13:23:50;0.50;;;0.50;;
20318;SDS011;10317;47.254;11.314;2023-05-10T13:26:16;0.52;;;0.50;;
20318;SDS011;10317;47.254;11.314;2023-05-10T13:28:41;0.60;;;0.60;;
20318;SDS011;10317;47.254;11.314;2023-05-10T13:31:08;1.92;;;0.60;;
20318;SDS011;10317;47.254;11.314;2023-05-10T13:33:34;0.60;;;0.60;;
20318;SDS011;10317;47.254;11.314;2023-05-10T13:35:59;1.23;;;1.13;;
20318;SDS011;10317;47.254;11.314;2023-05-10T13:38:25;0.75;;;0.75;;
20318;SDS011;10317;47.254;11.314;2023-05-10T13:40:51;0.88;;;0.88;;
20318;SDS011;10317;47.254;11.314;2023-05-10T13:43:18;1.13;;;1.00;;
20318;SDS011;10317;47.254;11.314;2023-05-10T13:45:44;1.05;;;1.00;;
20318;SDS011;10317;47.254;11.314;2023-05-10T13:48:12;1.10;;;1.00;;
20318;SDS011;10317;47.254;11.314;2023-05-10T13:50:37;2.08;;;0.80;;
20318;SDS011;10317;47.254;11.314;2023-05-10T13:53:03;1.90;;;1.00;;
20318;SDS011;10317;47.254;11.314;2023-05-10T13:55:30;1.02;;;1.02;;
20318;SDS011;10317;47.254;11.314;2023-05-10T13:57:55;0.63;;;0.63;;
20318;SDS011;10317;47.254;11.314;2023-05-10T14:00:21;0.65;;;0.65;;
20318;SDS011;10317;47.254;11.314;2023-05-10T14:02:47;4.45;;;0.70;;
20318;SDS011;10317;47.254;11.314;2023-05-10T14:05:13;1.50;;;1.40;;
20318;SDS011;10317;47.254;11.314;2023-05-10T14:07:38;3.50;;;0.90;;
20318;SDS011;10317;47.254;11.314;2023-05-10T14:10:04;0.70;;;0.70;;
20318;SDS011;10317;47.254;11.314;2023-05-10T14:12:31;0.60;;;0.60;;
20318;SDS011;10317;47.254;11.314;2023-05-10T14:14:57;2.67;;;0.85;;
20318;SDS011;10317;47.254;11.314;2023-05-10T14:17:23;1.13;;;0.80;;
20318;SDS011;10317;47.254;11.314;2023-05-10T14:19:48;1.02;;;0.80;;
20318;SDS011;10317;47.254;11.314;2023-05-10T14:22:14;0.52;;;0.52;;
20318;SDS011;10317;47.254;11.314;2023-05-10T14:24:40;0.65;;;0.65;;
20318;SDS011;10317;47.254;11.314;2023-05-10T14:27:05;0.60;;;0.60;;
20318;SDS011;10317;47.254;11.314;2023-05-10T14:29:32;0.60;;;0.60;;
20318;SDS011;10317;47.254;11.314;2023-05-10T14:31:57;4.63;;;1.45;;
20318;SDS011;10317;47.254;11.314;2023-05-10T14:34:23;1.25;;;0.60;;
20318;SDS011;10317;47.254;11.314;2023-05-10T14:36:49;0.70;;;0.70;;
20318;SDS011;10317;47.254;11.314;2023-05-10T14:39:15;0.73;;;0.70;;
20318;SDS011;10317;47.254;11.314;2023-05-10T14:41:41;0.88;;;0.88;;
20318;SDS011;10317;47.254;11.314;2023-05-10T14:44:08;0.70;;;0.70;;
20318;SDS011;10317;47.254;11.314;2023-05-10T14:46:34;2.15;;;0.80;;
20318;SDS011;10317;47.254;11.314;2023-05-10T14:49:00;0.80;;;0.60;;
20318;SDS011;10317;47.254;11.314;2023-05-10T14:51:26;2.10;;;0.80;;
20318;SDS011;10317;47.254;11.314;2023-05-10T14:53:51;1.42;;;0.60;;
20318;SDS011;10317;47.254;11.314;2023-05-10T14:56:17;1.48;;;0.60;;
20318;SDS011;10317;47.254;11.314;2023-05-10T14:58:43;0.73;;;0.68;;
20318;SDS011;10317;47.254;11.314;2023-05-10T15:01:09;8.75;;;0.95;;
20318;SDS011;10317;47.254;11.314;2023-05-10T15:03:34;0.73;;;0.73;;
20318;SDS011;10317;47.254;11.314;2023-05-10T15:06:00;0.82;;;0.82;;
20318;SDS011;10317;47.254;11.314;2023-05-10T15:08:26;0.90;;;0.73;;
20318;SDS011;10317;47.254;11.314;2023-05-10T15:10:51;2.10;;;0.80;;